createdAt,value
2023-02-06T00:04:52.841Z,102263.72
2023-02-06T00:09:55.884Z,102261.50
2023-02-06T00:14:58.891Z,102260.59
2023-02-06T00:20:01.969Z,102239.41
2023-02-06T00:25:06.233Z,102261.22
2023-02-06T00:30:09.593Z,102244.78
2023-02-06T00:35:12.725Z,102238.31
2023-02-06T00:40:17.765Z,102248.63
2023-02-06T00:45:20.771Z,102238.34
2023-02-06T00:50:23.786Z,102244.31
2023-02-06T00:55:27.091Z,102269.31
2023-02-06T01:00:31.212Z,102243.69
2023-02-06T01:05:34.658Z,102256.69
2023-02-06T01:10:40.220Z,102281.09
2023-02-06T01:15:43.265Z,102258.66
2023-02-06T01:20:46.289Z,102280.22
2023-02-06T01:25:49.354Z,102278.50
2023-02-06T01:30:52.464Z,102291.97
2023-02-06T01:35:57.062Z,102283.53
2023-02-06T01:41:01.522Z,102284.34
2023-02-06T01:46:05.608Z,102288.63
2023-02-06T01:51:17.421Z,102301.22
2023-02-06T01:56:22.512Z,102290.94
2023-02-06T02:01:25.628Z,102301.56
2023-02-06T02:06:29.211Z,102301.22
2023-02-06T02:11:35.226Z,102295.13
2023-02-06T02:16:56.578Z,102312.06
2023-02-06T02:22:46.430Z,102306.03
2023-02-06T02:27:58.445Z,102311.50
2023-02-06T02:33:38.837Z,102318.69
2023-02-06T02:38:54.381Z,102249.81
2023-02-06T02:44:19.589Z,102295.50
2023-02-06T02:49:27.841Z,102290.13
2023-02-06T02:54:31.098Z,102292.50
2023-02-06T02:59:40.943Z,102309.06
2023-02-06T03:04:50.410Z,102300.59
2023-02-06T03:10:09.499Z,102306.69
2023-02-06T03:15:30.552Z,102310.09
2023-02-06T03:20:37.582Z,102288.63
2023-02-06T03:25:43.420Z,102285.44
2023-02-06T03:30:49.630Z,102285.81
2023-02-06T03:35:54.006Z,102305.53
2023-02-06T03:41:00.619Z,102317.97
2023-02-06T03:46:06.656Z,102322.06
2023-02-06T03:51:18.027Z,102321.00
2023-02-06T03:56:32.084Z,102314.19
2023-02-06T04:01:39.365Z,102341.69
2023-02-06T04:06:42.486Z,102330.72
2023-02-06T04:11:45.551Z,102340.72
2023-02-06T04:16:48.809Z,102333.97
2023-02-06T04:21:51.939Z,102346.16
2023-02-06T04:26:55.038Z,102311.97
2023-02-06T04:32:02.466Z,102320.88
2023-02-06T04:37:06.310Z,102327.47
2023-02-06T04:42:09.486Z,102338.09
2023-02-06T04:47:12.557Z,102335.41
2023-02-06T04:52:15.678Z,102345.69
2023-02-06T04:57:18.808Z,102321.94
2023-02-06T05:02:21.897Z,102343.66
2023-02-06T05:07:25.327Z,102341.16
2023-02-06T05:12:29.440Z,102325.19
2023-02-06T05:17:32.851Z,102342.28
2023-02-06T05:22:35.892Z,102341.91
2023-02-06T05:27:38.956Z,102363.22
2023-02-06T05:32:42.070Z,102370.47
2023-02-06T05:37:45.068Z,102342.94
2023-02-06T05:42:48.152Z,102346.16
2023-02-06T05:47:51.568Z,102347.84
2023-02-06T05:52:54.618Z,102358.31
2023-02-06T05:57:57.903Z,102359.13
2023-02-06T06:03:00.996Z,102361.72
2023-02-06T06:08:04.743Z,102350.63
2023-02-06T06:13:08.600Z,102344.28
2023-02-06T06:18:12.191Z,102342.66
2023-02-06T06:23:15.285Z,102349.97
2023-02-06T06:28:18.482Z,102351.72
2023-02-06T06:33:21.474Z,102383.34
2023-02-06T06:38:24.825Z,102385.59
2023-02-06T06:43:28.234Z,102393.97
2023-02-06T06:48:32.822Z,102371.28
2023-02-06T06:53:40.250Z,102377.63
2023-02-06T06:58:43.476Z,102395.59
2023-02-06T07:03:48.655Z,102386.22
2023-02-06T07:08:51.873Z,102383.59
2023-02-06T07:13:57.811Z,102383.31
2023-02-06T07:19:00.896Z,102368.47
2023-02-06T07:24:04.807Z,102383.06
2023-02-06T07:29:07.877Z,102400.19
2023-02-06T07:34:11.054Z,102403.28
2023-02-06T07:39:14.122Z,102379.00
2023-02-06T07:44:17.221Z,102390.53
2023-02-06T07:49:20.392Z,102396.97
2023-02-06T07:54:23.567Z,102387.78
2023-02-06T07:59:27.463Z,102381.59
2023-02-06T08:04:36.006Z,102377.75
2023-02-06T08:09:39.129Z,102372.13
2023-02-06T08:14:46.013Z,102384.50
2023-02-06T08:19:49.732Z,102385.38
2023-02-06T08:24:52.843Z,102384.22
2023-02-06T08:29:58.318Z,102393.53
2023-02-06T08:35:01.843Z,102377.19
2023-02-06T08:40:10.896Z,102359.94
2023-02-06T08:45:13.892Z,102371.50
2023-02-06T08:50:17.127Z,102372.81
2023-02-06T08:55:20.407Z,102353.81
2023-02-06T09:00:28.468Z,102343.47
2023-02-06T09:05:32.607Z,102342.53
2023-02-06T09:10:35.714Z,102329.84
2023-02-06T09:15:39.052Z,102350.84
2023-02-06T09:20:42.280Z,102361.78
2023-02-06T09:25:46.193Z,102352.47
2023-02-06T09:30:50.026Z,102345.53
2023-02-06T09:36:08.650Z,102338.75
2023-02-06T09:41:43.154Z,102354.75
2023-02-06T09:47:11.837Z,102356.25
2023-02-06T09:52:31.205Z,102329.97
2023-02-06T09:57:46.673Z,102339.03
2023-02-06T10:03:03.233Z,102334.84
2023-02-06T10:08:31.937Z,102326.34
2023-02-06T10:13:41.640Z,102319.72
2023-02-06T10:18:55.018Z,102310.16
2023-02-06T10:24:04.845Z,102319.53
2023-02-06T10:29:18.582Z,102325.75
2023-02-06T10:34:36.058Z,102303.53
2023-02-06T10:39:57.090Z,102320.78
2023-02-06T10:45:43.843Z,102309.09
2023-02-06T10:50:56.962Z,102299.47
2023-02-06T10:56:18.823Z,102295.91
2023-02-06T11:01:26.812Z,102310.47
2023-02-06T11:06:30.843Z,102268.47
2023-02-06T11:11:41.230Z,102272.34
2023-02-06T11:16:47.232Z,102287.47
2023-02-06T11:21:53.102Z,102278.28
2023-02-06T11:26:59.282Z,102273.09
2023-02-06T11:32:05.535Z,102268.41
2023-02-06T11:37:37.744Z,102275.41
2023-02-06T11:42:40.872Z,102280.91
2023-02-06T11:47:44.007Z,102265.53
2023-02-06T11:52:48.006Z,102279.13
2023-02-06T11:58:14.372Z,102254.59
2023-02-06T12:03:32.629Z,102284.78
2023-02-06T12:08:52.389Z,102291.97
2023-02-06T12:13:58.887Z,102280.31
2023-02-06T12:19:01.897Z,102284.53
2023-02-06T12:24:29.624Z,102286.78
2023-02-06T12:29:40.480Z,102284.03
2023-02-06T12:35:00.941Z,102291.66
2023-02-06T12:40:04.778Z,102268.97
2023-02-06T12:45:26.310Z,102266.69
2023-02-06T12:50:32.817Z,102251.88
2023-02-06T12:55:41.182Z,102268.81
2023-02-06T13:00:47.711Z,102269.84
2023-02-06T13:06:10.178Z,102254.44
2023-02-06T13:11:39.312Z,102285.31
2023-02-06T13:16:49.396Z,102266.53
2023-02-06T13:22:14.614Z,102274.25
2023-02-06T13:27:25.729Z,102296.53
2023-02-06T13:32:41.049Z,102299.41
2023-02-06T13:37:48.195Z,102297.56
2023-02-06T13:42:53.072Z,102307.63
2023-02-06T13:48:13.232Z,102308.22
2023-02-06T13:53:19.039Z,102307.81
2023-02-06T13:58:50.965Z,102301.78
2023-02-06T14:03:55.388Z,102318.50
2023-02-06T14:09:30.904Z,102306.19
2023-02-06T14:15:14.533Z,102326.25
2023-02-06T14:20:36.116Z,102309.78
2023-02-06T14:26:11.908Z,102328.09
2023-02-06T14:31:21.094Z,102303.31
2023-02-06T14:36:31.904Z,102351.66
2023-02-06T14:41:39.789Z,102352.09
2023-02-06T14:46:42.912Z,102363.28
2023-02-06T14:51:50.715Z,102328.09
2023-02-06T14:57:02.525Z,102372.47
2023-02-06T15:02:22.707Z,102370.09
2023-02-06T15:07:37.185Z,102348.69
2023-02-06T15:12:40.569Z,102376.19
2023-02-06T15:17:44.188Z,102374.09
2023-02-06T15:22:48.164Z,102357.53
2023-02-06T15:28:00.994Z,102380.66
2023-02-06T15:33:09.868Z,102365.22
2023-02-06T15:38:15.898Z,102365.13
2023-02-06T15:43:22.867Z,102375.34
2023-02-06T15:48:32.715Z,102371.59
2023-02-06T15:53:39.573Z,102375.78
2023-02-06T15:58:43.651Z,102401.38
2023-02-06T16:03:52.412Z,102394.31
2023-02-06T16:08:58.960Z,102399.72
2023-02-06T16:14:02.476Z,102380.31
2023-02-06T16:19:29.813Z,102413.09
2023-02-06T16:24:32.935Z,102415.34
2023-02-06T16:29:36.390Z,102422.13
2023-02-06T16:34:42.379Z,102390.94
2023-02-06T16:39:46.118Z,102402.75
2023-02-06T16:44:52.845Z,102397.53
2023-02-06T16:49:56.358Z,102392.94
2023-02-06T16:54:59.712Z,102385.28
2023-02-06T17:00:05.420Z,102376.66
2023-02-06T17:05:08.707Z,102413.19
2023-02-06T17:10:15.572Z,102391.66
2023-02-06T17:15:20.066Z,102392.66
2023-02-06T17:20:37.962Z,102426.22
2023-02-06T17:25:43.440Z,102418.94
2023-02-06T17:30:47.108Z,102415.94
2023-02-06T17:35:50.397Z,102419.22
2023-02-06T17:40:54.586Z,102398.09
2023-02-06T17:45:57.594Z,102416.56
2023-02-06T17:51:00.744Z,102411.25
2023-02-06T17:56:06.737Z,102404.94
2023-02-06T18:01:20.716Z,102377.56
2023-02-06T18:06:24.086Z,102382.94
2023-02-06T18:11:27.591Z,102378.97
2023-02-06T18:16:31.957Z,102402.38
2023-02-06T18:21:35.096Z,102396.44
2023-02-06T18:26:38.207Z,102395.81
2023-02-06T18:31:41.586Z,102410.00
2023-02-06T18:36:44.690Z,102381.13
2023-02-06T18:42:06.294Z,102407.78
2023-02-06T18:47:13.806Z,102392.69
2023-02-06T18:52:18.138Z,102360.28
2023-02-06T18:57:21.193Z,102413.25
2023-02-06T19:02:24.207Z,102383.59
2023-02-06T19:07:27.974Z,102388.31
2023-02-06T19:12:31.016Z,102383.13
2023-02-06T19:17:34.553Z,102390.44
2023-02-06T19:22:38.391Z,102395.78
2023-02-06T19:27:41.516Z,102404.88
2023-02-06T19:32:45.462Z,102390.91
2023-02-06T19:37:48.662Z,102386.78
2023-02-06T19:42:51.772Z,102390.44
2023-02-06T19:47:55.015Z,102364.38
2023-02-06T19:52:58.088Z,102388.41
2023-02-06T19:58:01.153Z,102368.63
2023-02-06T20:03:04.456Z,102388.38
2023-02-06T20:08:07.658Z,102381.94
2023-02-06T20:13:10.739Z,102366.56
2023-02-06T20:18:13.827Z,102372.72
2023-02-06T20:23:16.832Z,102371.66
2023-02-06T20:28:19.953Z,102352.81
2023-02-06T20:33:23.071Z,102369.34
2023-02-06T20:38:26.311Z,102378.59
2023-02-06T20:43:29.756Z,102348.09
2023-02-06T20:48:34.127Z,102370.38
2023-02-06T20:53:37.234Z,102364.66
2023-02-06T20:58:40.365Z,102348.56
2023-02-06T21:03:44.786Z,102338.50
2023-02-06T21:08:50.465Z,102346.78
2023-02-06T21:13:53.518Z,102348.94
2023-02-06T21:18:57.912Z,102338.22
2023-02-06T21:24:01.003Z,102332.78
2023-02-06T21:29:06.563Z,102333.19
2023-02-06T21:34:16.233Z,102341.16
2023-02-06T21:39:21.938Z,102340.81
2023-02-06T21:44:26.672Z,102359.66
2023-02-06T21:49:29.753Z,102347.28
2023-02-06T21:54:32.759Z,102385.31
2023-02-06T21:59:38.202Z,102367.31
2023-02-06T22:04:41.283Z,102393.66
2023-02-06T22:09:44.532Z,102384.31
2023-02-06T22:14:47.677Z,102385.59
2023-02-06T22:19:51.020Z,102388.53
2023-02-06T22:24:54.108Z,102392.88
2023-02-06T22:29:57.249Z,102422.69
2023-02-06T22:35:00.715Z,102399.81
2023-02-06T22:40:04.134Z,102419.69
2023-02-06T22:45:07.545Z,102397.50
2023-02-06T22:50:10.575Z,102428.78
2023-02-06T22:55:13.580Z,102429.22
2023-02-06T23:00:18.727Z,102425.69
2023-02-06T23:05:21.794Z,102408.47
2023-02-06T23:10:24.815Z,102442.25
2023-02-06T23:15:27.846Z,102460.19
2023-02-06T23:20:30.860Z,102443.59
2023-02-06T23:25:33.914Z,102425.97
2023-02-06T23:30:36.934Z,102424.16
2023-02-06T23:35:40.848Z,102424.16
2023-02-06T23:40:44.440Z,102415.72
2023-02-06T23:45:47.511Z,102452.56
2023-02-06T23:50:50.650Z,102432.78
2023-02-06T23:55:54.569Z,102414.34
